Time;durP1;ratioP1;P1;durP2;ratioP2;P2;SDS_P1;SDS_P2;PMS_P1;PMS_P2;Temp;Humidity;BMP_temperature;BMP_pressure;BME280_temperature;BME280_humidity;BME280_pressure;Samples;Min_cycle;Max_cycle;Signal;HPM_P1;HPM_P2
2023/03/18 00:02:04;;;;;;;24.17;17.38;;;10.00;99.90;;;;;;5052497;28;20032;-60
2023/03/18 00:04:30;;;;;;;22.83;16.83;;;10.00;99.90;;;;;;5033807;28;20029;-60
2023/03/18 00:06:56;;;;;;;24.00;18.73;;;10.00;99.90;;;;;;5035167;28;20478;-60
2023/03/18 00:09:22;;;;;;;24.67;16.73;;;10.00;99.90;;;;;;5033841;28;20468;-61
2023/03/18 00:11:48;;;;;;;22.58;16.83;;;10.00;99.90;;;;;;5034116;28;20077;-61
2023/03/18 00:14:14;;;;;;;24.42;19.08;;;10.00;99.90;;;;;;5051887;28;20073;-60
2023/03/18 00:16:40;;;;;;;23.85;17.67;;;9.90;99.90;;;;;;5034761;28;20065;-60
2023/03/18 00:19:06;;;;;;;20.92;16.77;;;9.90;99.90;;;;;;5033707;28;20457;-61
2023/03/18 00:21:33;;;;;;;19.88;17.73;;;9.90;99.90;;;;;;5018123;28;20398;-60
2023/03/18 00:23:59;;;;;;;22.63;17.45;;;9.90;99.90;;;;;;5033399;28;20033;-60
2023/03/18 00:26:26;;;;;;;23.45;19.00;;;9.90;99.90;;;;;;5052023;28;20041;-60
2023/03/18 00:28:54;;;;;;;25.38;19.48;;;9.90;99.90;;;;;;5052242;28;20044;-60
2023/03/18 00:31:20;;;;;;;23.00;16.27;;;9.90;99.90;;;;;;5051074;28;20164;-60
2023/03/18 00:33:46;;;;;;;21.83;16.80;;;9.90;99.90;;;;;;5034501;28;20120;-60
2023/03/18 00:36:12;;;;;;;20.63;17.15;;;9.90;99.90;;;;;;5033944;28;20045;-61
2023/03/18 00:38:40;;;;;;;22.70;17.73;;;9.90;99.90;;;;;;5045105;28;20057;-61
2023/03/18 00:41:14;;;;;;;23.45;19.98;;;9.90;99.90;;;;;;5014197;28;20045;-60
2023/03/18 00:43:45;;;;;;;23.95;16.60;;;9.80;99.90;;;;;;5014583;28;20046;-61
2023/03/18 00:46:17;;;;;;;21.58;16.45;;;9.80;99.90;;;;;;5013391;28;20088;-60
2023/03/18 00:48:44;;;;;;;24.00;16.92;;;9.80;99.90;;;;;;5014359;28;20086;-60
2023/03/18 00:51:12;;;;;;;20.17;15.73;;;9.70;99.90;;;;;;5013451;28;20048;-60
2023/03/18 00:53:43;;;;;;;21.63;16.33;;;9.70;99.90;;;;;;5031539;28;20201;-60
2023/03/18 00:56:10;;;;;;;22.15;16.88;;;9.60;99.90;;;;;;5031580;28;20045;-61
2023/03/18 00:58:36;;;;;;;21.35;17.38;;;9.60;99.90;;;;;;5014601;28;20080;-60
2023/03/18 01:01:04;;;;;;;19.63;16.83;;;9.50;99.90;;;;;;5013607;28;20131;-60
2023/03/18 01:03:30;;;;;;;22.55;17.38;;;9.50;99.90;;;;;;5031891;28;20038;-61
2023/03/18 01:05:56;;;;;;;21.88;17.38;;;9.50;99.90;;;;;;5031961;28;20048;-60
2023/03/18 01:08:23;;;;;;;24.55;18.25;;;9.50;99.90;;;;;;5031225;28;20037;-60
2023/03/18 01:10:49;;;;;;;24.55;17.35;;;9.50;99.90;;;;;;5014514;28;20120;-60
2023/03/18 01:13:15;;;;;;;24.00;18.45;;;9.50;99.90;;;;;;5030611;28;20037;-60
2023/03/18 01:15:41;;;;;;;25.02;18.70;;;9.50;99.90;;;;;;5014311;28;20049;-60
2023/03/18 01:18:10;;;;;;;21.35;18.08;;;9.50;99.90;;;;;;5013905;28;20140;-60
2023/03/18 01:20:37;;;;;;;21.90;18.88;;;9.50;99.90;;;;;;4997153;28;20383;-60
2023/03/18 01:23:04;;;;;;;27.08;20.10;;;9.50;99.90;;;;;;5013881;28;20044;-60
2023/03/18 01:25:30;;;;;;;24.02;20.08;;;9.50;99.90;;;;;;5031644;28;20552;-61
2023/03/18 01:27:57;;;;;;;29.25;21.15;;;9.50;99.90;;;;;;5013510;28;20148;-61
2023/03/18 01:30:22;;;;;;;25.77;21.02;;;9.40;99.90;;;;;;4997311;28;20156;-60
2023/03/18 01:32:48;;;;;;;26.83;20.92;;;9.40;99.90;;;;;;5031867;28;20060;-60
2023/03/18 01:35:14;;;;;;;22.83;17.88;;;9.40;99.90;;;;;;5050005;28;20486;-61
2023/03/18 01:37:45;;;;;;;24.17;19.23;;;9.30;99.90;;;;;;5033911;28;20041;-60
2023/03/18 01:40:12;;;;;;;24.80;18.83;;;9.30;99.90;;;;;;5041141;28;20403;-60
2023/03/18 01:42:38;;;;;;;27.30;21.30;;;9.20;99.90;;;;;;5030924;28;20437;-60
2023/03/18 01:45:18;;;;;;;28.17;21.67;;;9.20;99.90;;;;;;5013794;28;20037;-60
2023/03/18 01:47:45;;;;;;;25.60;20.25;;;9.20;99.90;;;;;;4997794;28;20065;-60
2023/03/18 01:50:18;;;;;;;29.00;21.70;;;9.10;99.90;;;;;;5012659;28;20053;-60
2023/03/18 01:52:45;;;;;;;28.30;21.42;;;9.00;99.90;;;;;;5014149;28;20041;-60
2023/03/18 01:55:19;;;;;;;26.88;20.40;;;9.00;99.90;;;;;;5024570;28;20036;-60
2023/03/18 01:57:45;;;;;;;28.48;23.40;;;8.90;99.90;;;;;;5013804;28;20052;-60
2023/03/18 02:00:11;;;;;;;36.95;27.10;;;8.90;99.90;;;;;;5013112;28;20044;-60
2023/03/18 02:02:40;;;;;;;26.65;21.98;;;8.80;99.90;;;;;;5013110;28;20044;-61
2023/03/18 02:05:10;;;;;;;32.00;23.88;;;8.80;99.90;;;;;;5005492;28;20092;-60
2023/03/18 02:07:37;;;;;;;31.98;25.70;;;8.70;99.90;;;;;;5017573;28;20124;-60
2023/03/18 02:10:09;;;;;;;32.95;26.67;;;8.70;99.90;;;;;;5016160;28;20044;-60
2023/03/18 02:12:38;;;;;;;36.05;28.05;;;8.70;99.90;;;;;;5034938;28;20119;-60
2023/03/18 02:15:09;;;;;;;35.88;27.70;;;8.60;99.90;;;;;;5000595;28;20041;-60
2023/03/18 02:17:40;;;;;;;37.85;28.48;;;8.60;99.90;;;;;;5000470;28;20056;-60
2023/03/18 02:20:37;;;;;;;36.63;28.25;;;8.60;99.90;;;;;;5016343;28;20037;-61
2023/03/18 02:23:17;;;;;;;32.65;26.23;;;8.50;99.90;;;;;;5016780;28;20037;-61
2023/03/18 02:25:57;;;;;;;37.40;29.10;;;8.50;99.90;;;;;;5000068;28;20378;-61
2023/03/18 02:28:26;;;;;;;36.08;27.63;;;8.40;99.90;;;;;;5016572;28;20054;-60
2023/03/18 02:30:56;;;;;;;33.90;26.42;;;8.40;99.90;;;;;;5016465;28;20048;-60
2023/03/18 02:33:25;;;;;;;35.67;26.40;;;8.40;99.90;;;;;;5033967;28;20603;-60
2023/03/18 02:35:56;;;;;;;34.83;29.02;;;8.30;99.90;;;;;;5016888;28;20462;-60
2023/03/18 02:38:22;;;;;;;40.15;29.60;;;8.30;99.90;;;;;;5032864;28;20490;-61
2023/03/18 02:40:48;;;;;;;38.25;30.08;;;8.30;99.90;;;;;;5034334;28;20056;-60
2023/03/18 02:43:22;;;;;;;33.60;25.88;;;8.20;99.90;;;;;;5016182;28;20037;-60
2023/03/18 02:46:00;;;;;;;33.00;28.08;;;8.20;99.90;;;;;;5007353;28;20092;-60
2023/03/18 02:48:32;;;;;;;36.30;27.95;;;8.20;99.90;;;;;;5036211;28;20059;-60
2023/03/18 02:50:57;;;;;;;31.15;25.52;;;8.10;99.90;;;;;;5036302;28;20127;-60
2023/03/18 02:53:23;;;;;;;34.25;27.83;;;8.00;99.90;;;;;;5034828;28;20466;-60
2023/03/18 02:55:49;;;;;;;36.92;28.33;;;8.00;99.90;;;;;;5036156;28;20095;-60
2023/03/18 02:58:15;;;;;;;33.90;28.75;;;7.90;99.90;;;;;;5035627;28;20048;-61
2023/03/18 03:00:41;;;;;;;40.33;29.75;;;7.90;99.90;;;;;;5035074;28;20411;-60
2023/03/18 03:03:07;;;;;;;36.65;29.35;;;7.90;99.90;;;;;;5035442;28;20045;-60
2023/03/18 03:05:33;;;;;;;40.75;31.92;;;7.90;99.90;;;;;;5053701;28;20083;-60
2023/03/18 03:07:59;;;;;;;40.20;29.25;;;7.80;99.90;;;;;;5036108;28;20063;-60
2023/03/18 03:10:25;;;;;;;48.55;36.10;;;7.80;99.90;;;;;;5053128;28;20041;-60
2023/03/18 03:12:51;;;;;;;45.35;34.58;;;7.80;99.90;;;;;;5052863;28;20087;-60
2023/03/18 03:15:18;;;;;;;39.33;32.13;;;7.70;99.90;;;;;;5022154;28;20490;-60
2023/03/18 03:17:44;;;;;;;40.17;32.13;;;7.70;99.90;;;;;;5016260;28;20037;-60
2023/03/18 03:20:10;;;;;;;39.35;30.48;;;7.60;99.90;;;;;;5032304;28;20048;-60
2023/03/18 03:22:36;;;;;;;39.42;30.88;;;7.60;99.90;;;;;;5016213;28;20037;-60
2023/03/18 03:25:02;;;;;;;41.47;31.77;;;7.50;99.90;;;;;;5033142;28;20444;-60
2023/03/18 03:27:28;;;;;;;32.30;26.90;;;7.50;99.90;;;;;;4998457;28;20037;-60
2023/03/18 03:29:54;;;;;;;36.65;27.13;;;7.40;99.90;;;;;;5015836;28;20041;-61
2023/03/18 03:32:21;;;;;;;39.25;31.10;;;7.40;99.90;;;;;;5015176;28;20041;-61
2023/03/18 03:34:48;;;;;;;38.85;30.73;;;7.40;99.90;;;;;;5014876;28;20636;-60
2023/03/18 03:37:14;;;;;;;35.28;29.48;;;7.40;99.90;;;;;;5014986;28;20120;-60
2023/03/18 03:39:39;;;;;;;41.20;30.65;;;7.40;99.90;;;;;;5032965;28;20445;-60
2023/03/18 03:42:05;;;;;;;44.17;33.50;;;7.40;99.90;;;;;;5014255;28;20137;-60
2023/03/18 03:44:31;;;;;;;41.83;31.95;;;7.30;99.90;;;;;;5015494;28;20029;-60
2023/03/18 03:46:57;;;;;;;39.22;30.38;;;7.30;99.90;;;;;;4999393;28;20402;-61
2023/03/18 03:49:23;;;;;;;44.97;35.97;;;7.30;99.90;;;;;;5014530;28;20033;-60
2023/03/18 03:51:48;;;;;;;49.35;36.85;;;7.20;99.90;;;;;;5015334;28;20040;-60
2023/03/18 03:54:15;;;;;;;44.50;33.85;;;7.30;99.90;;;;;;5014558;28;20075;-60
2023/03/18 03:56:42;;;;;;;57.33;41.15;;;7.30;99.90;;;;;;5014814;28;20120;-60
2023/03/18 03:59:09;;;;;;;46.13;35.28;;;7.30;99.90;;;;;;5014619;28;20034;-60
2023/03/18 04:01:34;;;;;;;45.85;34.83;;;7.30;99.90;;;;;;5032963;28;20042;-60
2023/03/18 04:04:01;;;;;;;53.33;39.53;;;7.30;99.90;;;;;;5014461;28;20433;-60
2023/03/18 04:06:28;;;;;;;50.92;40.40;;;7.30;99.90;;;;;;5033020;28;20045;-60
2023/03/18 04:08:54;;;;;;;56.05;40.20;;;7.30;99.90;;;;;;5014118;28;20041;-60
2023/03/18 04:11:20;;;;;;;53.17;38.80;;;7.40;99.90;;;;;;5014749;28;20136;-60
2023/03/18 04:13:46;;;;;;;54.80;40.67;;;7.30;99.90;;;;;;4998747;28;20045;-60
2023/03/18 04:16:13;;;;;;;50.75;37.13;;;7.30;99.90;;;;;;5013665;28;20907;-61
2023/03/18 04:18:39;;;;;;;46.92;35.83;;;7.30;99.90;;;;;;5015140;28;20084;-61
2023/03/18 04:21:06;;;;;;;52.30;39.22;;;7.30;99.90;;;;;;5032399;28;20073;-60
2023/03/18 04:23:33;;;;;;;46.75;37.80;;;7.30;99.90;;;;;;5013905;28;20038;-60
2023/03/18 04:25:58;;;;;;;46.00;35.58;;;7.30;99.90;;;;;;5014409;28;20041;-60
2023/03/18 04:28:24;;;;;;;46.03;35.00;;;7.30;99.90;;;;;;5032123;28;20571;-60
2023/03/18 04:30:50;;;;;;;57.83;41.38;;;7.30;99.90;;;;;;5031762;28;20142;-60
2023/03/18 04:33:16;;;;;;;59.67;40.53;;;7.20;99.90;;;;;;4997693;28;20041;-61
2023/03/18 04:35:42;;;;;;;52.78;38.42;;;7.30;99.90;;;;;;5014637;28;20041;-60
2023/03/18 04:38:08;;;;;;;56.75;39.53;;;7.30;99.90;;;;;;5013302;28;20466;-60
2023/03/18 04:40:34;;;;;;;57.58;38.53;;;7.40;99.90;;;;;;5033904;28;20508;-60
2023/03/18 04:42:59;;;;;;;51.25;35.20;;;7.40;99.90;;;;;;5035362;28;20068;-61
2023/03/18 04:45:25;;;;;;;55.22;38.22;;;7.40;99.90;;;;;;5031275;28;20510;-60
2023/03/18 04:47:51;;;;;;;45.30;35.42;;;7.50;99.90;;;;;;5014564;28;20117;-61
2023/03/18 04:50:17;;;;;;;51.53;38.17;;;7.50;99.90;;;;;;5013998;28;20529;-60
2023/03/18 04:52:43;;;;;;;49.72;35.28;;;7.50;99.90;;;;;;5013750;28;20046;-60
2023/03/18 04:55:10;;;;;;;47.20;35.67;;;7.50;99.90;;;;;;5013902;28;20047;-60
2023/03/18 04:57:37;;;;;;;50.08;35.55;;;7.50;99.90;;;;;;5032228;28;20037;-60
2023/03/18 05:00:16;;;;;;;49.58;35.85;;;7.60;99.90;;;;;;5013309;28;20049;-61
2023/03/18 05:02:42;;;;;;;54.50;37.45;;;7.60;99.90;;;;;;5014589;28;20043;-60
2023/03/18 05:05:09;;;;;;;59.45;38.13;;;7.60;99.90;;;;;;5030633;28;20041;-60
2023/03/18 05:07:35;;;;;;;108.22;43.25;;;7.60;99.90;;;;;;5032191;28;20120;-60
2023/03/18 05:10:05;;;;;;;66.07;38.72;;;7.70;99.90;;;;;;5031781;28;20047;-60
2023/03/18 05:12:31;;;;;;;155.32;52.80;;;7.70;99.90;;;;;;5013634;28;20103;-60
2023/03/18 05:14:57;;;;;;;177.35;58.58;;;7.70;99.90;;;;;;5014366;28;20410;-61
2023/03/18 05:17:23;;;;;;;273.65;83.47;;;7.70;99.90;;;;;;5031318;28;20038;-61
2023/03/18 05:19:49;;;;;;;169.70;56.72;;;7.70;99.90;;;;;;4996924;28;20045;-60
2023/03/18 05:22:17;;;;;;;117.32;49.03;;;7.70;99.90;;;;;;5044655;28;20037;-60
2023/03/18 05:24:44;;;;;;;131.00;48.67;;;7.70;99.90;;;;;;5034016;28;20037;-60
2023/03/18 05:27:11;;;;;;;121.90;46.03;;;7.70;99.90;;;;;;5050514;28;20041;-61
2023/03/18 05:29:39;;;;;;;143.93;47.97;;;7.70;99.90;;;;;;5051755;28;20037;-60
2023/03/18 05:32:08;;;;;;;127.93;50.53;;;7.60;99.90;;;;;;5033978;28;20213;-60
2023/03/18 05:34:38;;;;;;;134.27;51.20;;;7.70;99.90;;;;;;5050727;28;20029;-61
2023/03/18 05:37:05;;;;;;;109.05;46.70;;;7.70;99.90;;;;;;5016763;28;20040;-61
2023/03/18 05:39:32;;;;;;;81.13;39.80;;;7.70;99.90;;;;;;5019784;28;20059;-60
2023/03/18 05:41:59;;;;;;;128.77;51.60;;;7.70;99.90;;;;;;5054566;28;20052;-60
2023/03/18 05:44:25;;;;;;;77.03;36.13;;;7.70;99.90;;;;;;5036926;28;20037;-61
2023/03/18 05:46:51;;;;;;;69.50;31.20;;;7.70;99.90;;;;;;5020943;28;20032;-60
2023/03/18 05:49:18;;;;;;;78.10;33.70;;;7.80;99.90;;;;;;5035968;28;20033;-60
2023/03/18 05:51:45;;;;;;;166.93;47.58;;;7.80;99.90;;;;;;5037179;28;20048;-61
2023/03/18 05:54:11;;;;;;;194.88;53.78;;;7.80;99.90;;;;;;5054913;28;20139;-60
2023/03/18 05:56:37;;;;;;;68.40;30.75;;;7.80;99.90;;;;;;5054506;28;20045;-61
2023/03/18 05:59:04;;;;;;;98.05;34.58;;;7.90;99.90;;;;;;5054842;28;20539;-60
2023/03/18 06:01:31;;;;;;;72.70;31.75;;;7.90;99.90;;;;;;5019439;28;20037;-60
2023/03/18 06:03:58;;;;;;;79.57;33.22;;;7.90;99.90;;;;;;5055103;28;20045;-60
2023/03/18 06:06:24;;;;;;;97.38;36.45;;;7.90;99.90;;;;;;5054540;28;20048;-60
2023/03/18 06:08:51;;;;;;;106.85;39.13;;;7.90;99.90;;;;;;5036177;28;20048;-60
2023/03/18 06:11:17;;;;;;;160.45;47.95;;;8.00;99.90;;;;;;5036547;28;20057;-60
2023/03/18 06:13:43;;;;;;;200.98;55.38;;;8.00;99.90;;;;;;5054775;28;20160;-61
2023/03/18 06:16:10;;;;;;;134.85;40.30;;;8.00;99.90;;;;;;5053058;28;20111;-60
2023/03/18 06:18:36;;;;;;;202.95;54.58;;;8.00;99.90;;;;;;5037110;28;20485;-60
2023/03/18 06:21:03;;;;;;;132.32;44.22;;;8.10;99.90;;;;;;5036457;28;20500;-61
2023/03/18 06:23:29;;;;;;;226.48;66.20;;;8.10;99.90;;;;;;5035601;28;20041;-60
2023/03/18 06:25:55;;;;;;;125.78;48.75;;;8.10;99.90;;;;;;5020387;28;20120;-61
2023/03/18 06:28:20;;;;;;;84.97;38.47;;;8.10;99.90;;;;;;5054193;28;20052;-61
2023/03/18 06:30:46;;;;;;;172.13;55.75;;;8.10;99.90;;;;;;5011677;28;20057;-60
2023/03/18 06:33:14;;;;;;;153.00;52.38;;;8.10;99.90;;;;;;5016169;28;20502;-60
2023/03/18 06:35:40;;;;;;;227.30;68.38;;;8.20;99.90;;;;;;5016773;28;20061;-60
2023/03/18 06:38:07;;;;;;;109.47;43.17;;;8.10;99.90;;;;;;4999057;28;20041;-60
2023/03/18 06:40:33;;;;;;;145.75;55.97;;;8.20;99.90;;;;;;5034139;28;20081;-61
2023/03/18 06:42:59;;;;;;;175.98;65.03;;;8.20;99.90;;;;;;5016749;28;20069;-61
2023/03/18 06:45:25;;;;;;;115.53;50.05;;;8.20;99.90;;;;;;5015165;28;20041;-61
2023/03/18 06:47:50;;;;;;;89.55;45.67;;;8.20;99.90;;;;;;5000226;28;20037;-61
2023/03/18 06:50:16;;;;;;;86.07;44.25;;;8.20;99.90;;;;;;5015603;28;20284;-61
2023/03/18 06:52:42;;;;;;;94.47;49.10;;;8.20;99.90;;;;;;5015575;28;20387;-61
2023/03/18 06:55:09;;;;;;;111.13;51.25;;;8.30;99.90;;;;;;5033560;28;20095;-60
2023/03/18 06:57:34;;;;;;;100.50;49.33;;;8.30;99.90;;;;;;5016359;28;20049;-61
2023/03/18 07:00:01;;;;;;;92.75;49.17;;;8.30;99.90;;;;;;5033241;28;20038;-61
2023/03/18 07:02:26;;;;;;;95.75;49.65;;;8.40;99.90;;;;;;5033569;28;20124;-61
2023/03/18 07:04:53;;;;;;;84.20;45.47;;;8.40;99.90;;;;;;5015728;28;20152;-61
2023/03/18 07:07:20;;;;;;;95.43;47.63;;;8.50;99.90;;;;;;5033465;28;20105;-61
2023/03/18 07:09:45;;;;;;;79.95;44.90;;;8.50;99.90;;;;;;5001153;28;20045;-61
2023/03/18 07:12:15;;;;;;;94.18;52.60;;;8.60;99.90;;;;;;5018145;28;20064;-61
2023/03/18 07:14:41;;;;;;;68.47;42.80;;;8.60;99.90;;;;;;5036106;28;20074;-61
2023/03/18 07:17:09;;;;;;;78.70;48.40;;;8.70;99.90;;;;;;5035378;28;20045;-61
2023/03/18 07:19:34;;;;;;;72.03;44.33;;;8.80;99.90;;;;;;5034769;28;20513;-61
2023/03/18 07:22:01;;;;;;;64.00;39.33;;;8.70;99.90;;;;;;5036078;28;20048;-60
2023/03/18 07:24:27;;;;;;;67.00;43.83;;;8.90;99.90;;;;;;5035113;28;20047;-61
2023/03/18 07:26:53;;;;;;;60.33;40.15;;;8.80;99.90;;;;;;5018154;28;20037;-67
2023/03/18 07:29:19;;;;;;;73.25;45.78;;;8.90;99.90;;;;;;5034439;28;20041;-67
2023/03/18 07:31:45;;;;;;;64.15;42.95;;;8.90;99.90;;;;;;5035433;28;20037;-67
2023/03/18 07:34:13;;;;;;;67.47;44.70;;;9.00;99.90;;;;;;5034126;28;20053;-67
2023/03/18 07:36:40;;;;;;;61.03;43.40;;;9.00;99.90;;;;;;5053285;28;20411;-67
2023/03/18 07:39:07;;;;;;;57.75;42.92;;;9.00;99.90;;;;;;5034810;28;20092;-67
2023/03/18 07:41:32;;;;;;;63.30;42.85;;;9.00;99.90;;;;;;5034249;28;20045;-67
2023/03/18 07:43:58;;;;;;;57.28;41.33;;;9.10;99.90;;;;;;5018832;28;20532;-67
2023/03/18 07:46:24;;;;;;;58.10;41.83;;;9.10;99.90;;;;;;5018252;28;20037;-67
2023/03/18 07:48:50;;;;;;;57.80;41.28;;;9.20;99.90;;;;;;5034604;28;20045;-67
2023/03/18 07:51:16;;;;;;;50.13;38.22;;;9.30;99.90;;;;;;5035285;28;20037;-67
2023/03/18 07:53:42;;;;;;;54.42;39.97;;;9.40;99.90;;;;;;5015396;28;20493;-67
2023/03/18 07:56:08;;;;;;;52.35;38.30;;;9.50;99.90;;;;;;5032079;28;20038;-68
2023/03/18 07:58:35;;;;;;;51.53;36.97;;;9.60;99.90;;;;;;5015409;28;20038;-67
2023/03/18 08:01:01;;;;;;;52.22;38.38;;;9.70;99.90;;;;;;5020005;28;20088;-67
2023/03/18 08:03:27;;;;;;;45.25;36.00;;;9.70;99.90;;;;;;5019444;28;20506;-67
2023/03/18 08:05:53;;;;;;;49.00;36.28;;;9.70;99.90;;;;;;5014938;28;20124;-67
2023/03/18 08:08:20;;;;;;;44.08;34.60;;;9.80;99.90;;;;;;5031465;28;20830;-67
2023/03/18 08:10:45;;;;;;;45.90;33.75;;;9.90;99.90;;;;;;5014865;28;20120;-67
2023/03/18 08:13:11;;;;;;;41.35;31.27;;;9.90;99.90;;;;;;5006545;28;20140;-67
2023/03/18 08:15:37;;;;;;;44.58;33.00;;;9.90;99.90;;;;;;5015040;28;20081;-68
2023/03/18 08:18:03;;;;;;;41.67;31.33;;;10.00;99.90;;;;;;5025965;28;20099;-67
2023/03/18 08:20:30;;;;;;;45.30;33.05;;;10.00;99.90;;;;;;5031831;28;20045;-68
2023/03/18 08:22:56;;;;;;;40.70;31.63;;;10.10;99.90;;;;;;5031778;28;20049;-67
2023/03/18 08:25:22;;;;;;;41.35;32.08;;;10.10;99.90;;;;;;5030810;28;20040;-68
2023/03/18 08:27:51;;;;;;;42.45;32.85;;;10.20;99.90;;;;;;5031964;28;20054;-67
2023/03/18 08:30:17;;;;;;;43.80;33.75;;;10.30;99.90;;;;;;5029862;28;20044;-67
2023/03/18 08:32:43;;;;;;;42.80;34.38;;;10.40;99.90;;;;;;5015875;28;20045;-67
2023/03/18 08:35:10;;;;;;;41.08;30.17;;;10.50;99.90;;;;;;5030234;28;20048;-67
2023/03/18 08:37:36;;;;;;;40.55;31.08;;;10.50;99.90;;;;;;5028846;28;20498;-68
2023/03/18 08:40:04;;;;;;;39.92;31.33;;;10.60;99.90;;;;;;5036613;28;20053;-67
2023/03/18 08:42:29;;;;;;;39.55;30.40;;;10.60;99.90;;;;;;5029876;28;20120;-67
2023/03/18 08:44:55;;;;;;;36.22;29.25;;;10.70;99.90;;;;;;5036369;28;20120;-67
2023/03/18 08:47:23;;;;;;;33.55;27.83;;;10.70;99.90;;;;;;5010520;28;20048;-67
2023/03/18 08:49:49;;;;;;;37.80;31.52;;;10.70;99.90;;;;;;5009933;28;20532;-67
2023/03/18 08:52:15;;;;;;;37.38;30.92;;;10.80;99.90;;;;;;5030365;28;20041;-67
2023/03/18 08:54:41;;;;;;;37.00;29.95;;;10.80;99.90;;;;;;5015359;28;20561;-67
2023/03/18 08:57:06;;;;;;;41.10;29.73;;;10.90;99.90;;;;;;5030466;28;20127;-67
2023/03/18 08:59:32;;;;;;;35.22;28.25;;;10.90;99.90;;;;;;5026940;28;20033;-67
2023/03/18 09:01:58;;;;;;;34.05;28.15;;;11.00;99.90;;;;;;5040005;28;20052;-67
2023/03/18 09:04:24;;;;;;;37.22;28.60;;;11.00;99.90;;;;;;5007774;28;20067;-67
2023/03/18 09:06:50;;;;;;;34.65;27.02;;;11.00;99.90;;;;;;5011566;28;20037;-67
2023/03/18 09:09:16;;;;;;;36.20;28.52;;;11.10;99.90;;;;;;5026004;28;20094;-67
2023/03/18 09:11:44;;;;;;;35.35;27.75;;;11.10;99.90;;;;;;5047506;28;20430;-67
2023/03/18 09:14:10;;;;;;;36.80;28.30;;;11.10;99.90;;;;;;5024294;28;20049;-67
2023/03/18 09:16:36;;;;;;;38.13;29.25;;;11.20;99.90;;;;;;5032535;28;20044;-67
2023/03/18 09:19:02;;;;;;;39.72;29.85;;;11.20;99.90;;;;;;5031605;28;20136;-67
2023/03/18 09:21:28;;;;;;;38.88;27.13;;;11.20;99.90;;;;;;5031717;28;20095;-66
2023/03/18 09:23:53;;;;;;;33.85;26.45;;;11.20;99.90;;;;;;5018174;28;20037;-65
2023/03/18 09:26:19;;;;;;;36.53;28.38;;;11.30;99.90;;;;;;5033804;28;20075;-66
2023/03/18 09:28:45;;;;;;;39.83;26.67;;;11.30;99.90;;;;;;5051371;28;20120;-67
2023/03/18 09:31:12;;;;;;;33.05;27.13;;;11.40;99.90;;;;;;5020883;28;20045;-67
2023/03/18 09:33:38;;;;;;;33.63;27.17;;;11.40;99.90;;;;;;5030977;28;20045;-67
2023/03/18 09:36:04;;;;;;;35.75;27.00;;;11.40;99.90;;;;;;5014797;28;20385;-67
2023/03/18 09:38:30;;;;;;;34.53;27.52;;;11.40;99.90;;;;;;5026826;28;20130;-67
2023/03/18 09:41:11;;;;;;;32.92;28.15;;;11.40;99.90;;;;;;5034005;28;20095;-67
2023/03/18 09:44:22;;;;;;;35.53;26.58;;;11.40;99.90;;;;;;5033137;28;20068;-67
2023/03/18 09:46:48;;;;;;;31.58;25.88;;;11.50;99.90;;;;;;5007045;28;20053;-67
2023/03/18 09:49:38;;;;;;;35.05;27.73;;;11.50;99.90;;;;;;5015303;28;20045;-67
2023/03/18 09:52:19;;;;;;;32.33;26.55;;;11.60;99.90;;;;;;5015832;28;20037;-67
2023/03/18 09:55:07;;;;;;;40.75;31.27;;;11.70;99.90;;;;;;5017846;28;20653;-67
2023/03/18 09:57:44;;;;;;;34.40;26.73;;;11.80;99.90;;;;;;5014855;28;20168;-67
2023/03/18 10:00:37;;;;;;;37.80;30.20;;;12.00;99.90;;;;;;4997497;28;20510;-67
2023/03/18 10:03:20;;;;;;;34.45;26.83;;;12.20;99.90;;;;;;5035486;28;20095;-67
2023/03/18 10:05:53;;;;;;;34.58;26.48;;;12.30;99.90;;;;;;5032370;28;20048;-67
2023/03/18 10:08:47;;;;;;;29.40;23.85;;;12.30;99.90;;;;;;5013282;28;20627;-67
2023/03/18 10:11:25;;;;;;;29.05;23.23;;;12.40;99.90;;;;;;5048173;28;20052;-66
2023/03/18 10:14:19;;;;;;;27.25;21.38;;;12.40;99.90;;;;;;5017847;28;20504;-66
2023/03/18 10:17:15;;;;;;;25.98;20.13;;;12.40;99.90;;;;;;4971744;28;20602;-66
2023/03/18 10:19:54;;;;;;;27.60;21.63;;;12.40;99.90;;;;;;5034159;28;20052;-66
2023/03/18 10:22:36;;;;;;;28.77;22.15;;;12.50;99.90;;;;;;5010251;28;20043;-67
2023/03/18 10:25:23;;;;;;;24.30;19.77;;;12.60;99.90;;;;;;5049776;28;20079;-67
2023/03/18 10:28:04;;;;;;;22.75;18.20;;;12.80;99.90;;;;;;5050979;28;20044;-66
2023/03/18 10:31:07;;;;;;;23.48;17.20;;;13.00;99.90;;;;;;5033151;28;20080;-67
2023/03/18 10:34:00;;;;;;;19.92;17.80;;;13.10;99.90;;;;;;5032086;28;20043;-67
2023/03/18 10:36:38;;;;;;;19.15;16.70;;;13.20;99.90;;;;;;5043855;28;20068;-67
2023/03/18 10:39:12;;;;;;;19.60;14.82;;;13.20;99.90;;;;;;5032726;28;20509;-67
2023/03/18 10:41:39;;;;;;;19.75;13.15;;;13.30;99.90;;;;;;5032540;28;20063;-67
2023/03/18 10:44:32;;;;;;;16.33;13.60;;;13.30;99.90;;;;;;5030200;28;20107;-67
2023/03/18 10:47:22;;;;;;;16.83;13.88;;;13.20;99.90;;;;;;5032471;28;20048;-67
2023/03/18 10:50:00;;;;;;;17.05;13.25;;;13.20;99.90;;;;;;5016148;28;20418;-67
2023/03/18 10:52:33;;;;;;;20.67;15.20;;;13.30;99.90;;;;;;5032847;28;20032;-67
2023/03/18 10:54:58;;;;;;;21.20;13.98;;;13.40;99.90;;;;;;5016292;28;20048;-67
2023/03/18 10:57:24;;;;;;;18.90;13.93;;;13.60;99.90;;;;;;5028724;28;20508;-67
2023/03/18 10:59:50;;;;;;;20.85;15.77;;;13.70;99.90;;;;;;5035910;28;20060;-67
2023/03/18 11:02:38;;;;;;;20.13;15.02;;;13.80;99.90;;;;;;5036035;28;20044;-66
2023/03/18 11:05:25;;;;;;;16.73;12.68;;;14.00;99.90;;;;;;5034525;28;20483;-66
2023/03/18 11:08:03;;;;;;;15.40;11.02;;;14.00;99.90;;;;;;5035976;28;20843;-66
2023/03/18 11:10:38;;;;;;;14.80;8.50;;;14.10;99.90;;;;;;5053289;28;20509;-66
2023/03/18 11:13:05;;;;;;;8.32;5.80;;;14.20;99.90;;;;;;5035649;28;20381;-66
2023/03/18 11:15:38;;;;;;;9.63;5.45;;;14.20;99.90;;;;;;5019749;28;20041;-66
2023/03/18 11:18:04;;;;;;;8.00;5.35;;;14.20;99.90;;;;;;5034295;28;20055;-66
2023/03/18 11:20:48;;;;;;;11.65;6.30;;;14.20;99.90;;;;;;5047973;28;20033;-66
2023/03/18 11:23:18;;;;;;;8.57;5.72;;;14.20;99.90;;;;;;5033328;28;20045;-66
2023/03/18 11:25:49;;;;;;;8.30;5.40;;;14.30;99.90;;;;;;5015629;28;20045;-66
2023/03/18 11:28:27;;;;;;;8.90;5.40;;;14.30;99.90;;;;;;5039704;28;20036;-66
2023/03/18 11:30:59;;;;;;;9.32;6.32;;;14.40;99.90;;;;;;5035213;28;20044;-66
2023/03/18 11:33:30;;;;;;;10.95;7.22;;;14.40;99.90;;;;;;5034676;28;20068;-66
2023/03/18 11:35:58;;;;;;;8.38;5.85;;;14.60;99.90;;;;;;5035523;28;20490;-66
2023/03/18 11:38:31;;;;;;;9.27;5.68;;;14.70;99.90;;;;;;5043136;28;20124;-67
2023/03/18 11:41:21;;;;;;;8.27;5.28;;;14.80;99.90;;;;;;5034425;28;20508;-68
2023/03/18 11:43:59;;;;;;;8.55;5.80;;;14.90;99.90;;;;;;5026914;28;20118;-67
2023/03/18 11:46:30;;;;;;;8.25;5.22;;;14.90;99.90;;;;;;5017740;28;20136;-69
2023/03/18 11:48:58;;;;;;;7.18;3.25;;;14.90;99.90;;;;;;5035096;28;20504;-68
2023/03/18 11:51:44;;;;;;;7.80;3.40;;;14.90;99.90;;;;;;5018708;28;20045;-72
2023/03/18 11:54:48;;;;;;;6.25;3.75;;;15.00;99.90;;;;;;5021842;28;20131;-72
2023/03/18 11:57:22;;;;;;;6.10;2.88;;;15.10;99.90;;;;;;5047665;28;20040;-72
2023/03/18 12:00:09;;;;;;;9.68;3.97;;;15.00;99.90;;;;;;5048296;28;20041;-72
2023/03/18 12:02:45;;;;;;;8.43;4.72;;;15.00;99.90;;;;;;5025267;28;20082;-72
2023/03/18 12:05:44;;;;;;;7.15;3.53;;;15.00;99.90;;;;;;5022749;28;20474;-72
2023/03/18 12:08:53;;;;;;;7.30;3.80;;;14.90;99.90;;;;;;5011728;28;20453;-72
2023/03/18 12:11:37;;;;;;;8.15;4.47;;;14.70;99.90;;;;;;4969938;28;20491;-72
2023/03/18 12:14:35;;;;;;;7.10;4.45;;;14.80;99.90;;;;;;4953189;28;20051;-72
2023/03/18 12:17:32;;;;;;;9.23;6.60;;;14.90;99.90;;;;;;5006296;28;20048;-72
2023/03/18 12:20:49;;;;;;;9.88;7.20;;;15.20;99.90;;;;;;5016607;28;20041;-72
2023/03/18 12:23:15;;;;;;;10.73;7.28;;;15.20;99.90;;;;;;5026997;28;20084;-72
2023/03/18 12:26:00;;;;;;;9.68;7.07;;;15.10;99.90;;;;;;5050499;28;20122;-73
2023/03/18 12:28:45;;;;;;;11.60;7.53;;;15.10;99.90;;;;;;5012376;28;20131;-74
2023/03/18 12:31:39;;;;;;;12.00;7.07;;;15.20;99.90;;;;;;5047811;28;20055;-72
2023/03/18 12:34:19;;;;;;;9.75;6.97;;;15.20;99.90;;;;;;5029394;28;20049;-72
2023/03/18 12:37:00;;;;;;;11.20;7.45;;;15.10;99.90;;;;;;5034660;28;20152;-72
2023/03/18 12:39:41;;;;;;;9.75;7.32;;;15.20;99.90;;;;;;4991812;28;20060;-72
2023/03/18 12:42:30;;;;;;;11.13;8.13;;;15.20;99.90;;;;;;5012393;28;20133;-66
2023/03/18 12:45:14;;;;;;;14.00;6.40;;;15.30;99.90;;;;;;5003726;28;20029;-69
2023/03/18 12:47:58;;;;;;;10.00;6.90;;;15.50;99.90;;;;;;5011845;28;20380;-69
2023/03/18 12:50:37;;;;;;;10.55;7.15;;;15.50;99.90;;;;;;4976863;28;20042;-69